createdAt,value
2023-05-20T00:00:00.000Z,29.61
2023-05-20T00:15:00.000Z,31.32
2023-05-20T00:30:00.000Z,30.24
2023-05-20T00:45:00.000Z,29.05
2023-05-20T01:00:00.000Z,29.52
2023-05-20T01:15:00.000Z,29.25
2023-05-20T01:30:00.000Z,29.04
2023-05-20T01:45:00.000Z,28.75
2023-05-20T02:00:00.000Z,27.98
2023-05-20T02:15:00.000Z,28.48
2023-05-20T02:30:00.000Z,28.48
2023-05-20T02:45:00.000Z,30.35
2023-05-20T03:00:00.000Z,28.81
2023-05-20T03:15:00.000Z,29
2023-05-20T03:30:00.000Z,27.89
2023-05-20T03:45:00.000Z,27.16
2023-05-20T04:00:00.000Z,26.3
2023-05-20T04:15:00.000Z,27.74
2023-05-20T04:30:00.000Z,26.73
2023-05-20T04:45:00.000Z,26.13
2023-05-20T05:00:00.000Z,28.25
2023-05-20T05:15:00.000Z,26.21
2023-05-20T05:30:00.000Z,27.4
2023-05-20T05:45:00.000Z,31.87
2023-05-20T06:00:00.000Z,28.56
2023-05-20T06:15:00.000Z,27.84
2023-05-20T06:30:00.000Z,23.73
2023-05-20T06:45:00.000Z,23.34
2023-05-20T07:00:00.000Z,21.02
2023-05-20T07:15:00.000Z,21.64
2023-05-20T07:30:00.000Z,20.75
2023-05-20T07:45:00.000Z,19.19
2023-05-20T08:00:00.000Z,16.39
2023-05-20T08:15:00.000Z,12.87
2023-05-20T08:30:00.000Z,9.16
2023-05-20T08:45:00.000Z,9.98
2023-05-20T09:00:00.000Z,9.38
2023-05-20T09:15:00.000Z,10.55
2023-05-20T09:30:00.000Z,11.04
2023-05-20T09:45:00.000Z,13.26
2023-05-20T10:00:00.000Z,13.15
2023-05-20T10:15:00.000Z,14.02
2023-05-20T10:30:00.000Z,13.87
2023-05-20T10:45:00.000Z,14.94
2023-05-20T11:00:00.000Z,14.98
2023-05-20T11:15:00.000Z,15.09
2023-05-20T11:30:00.000Z,15.08
2023-05-20T11:45:00.000Z,14.29
2023-05-20T12:00:00.000Z,15.09
2023-05-20T12:15:00.000Z,14.12
2023-05-20T12:30:00.000Z,14.32
2023-05-20T12:45:00.000Z,14.39
2023-05-20T13:00:00.000Z,14.51
2023-05-20T13:15:00.000Z,14.2
2023-05-20T13:30:00.000Z,14.07
2023-05-20T13:45:00.000Z,14.05
2023-05-20T14:00:00.000Z,14.11
2023-05-20T14:15:00.000Z,14.38
2023-05-20T14:30:00.000Z,13.91
2023-05-20T14:45:00.000Z,14.13
2023-05-20T15:00:00.000Z,14.05
2023-05-20T15:15:00.000Z,15.16
2023-05-20T15:30:00.000Z,14.08
2023-05-20T15:45:00.000Z,13.8
2023-05-20T16:00:00.000Z,13.81
2023-05-20T16:15:00.000Z,13.73
2023-05-20T16:30:00.000Z,13.54
2023-05-20T16:45:00.000Z,13.8
2023-05-20T17:00:00.000Z,14.04
2023-05-20T17:15:00.000Z,14
2023-05-20T17:30:00.000Z,14.21
2023-05-20T17:45:00.000Z,14.33
2023-05-20T18:00:00.000Z,14.53
2023-05-20T18:15:00.000Z,14.66
2023-05-20T18:30:00.000Z,16.29
2023-05-20T18:45:00.000Z,16.56
2023-05-20T19:00:00.000Z,15.41
2023-05-20T19:15:00.000Z,15.49
2023-05-20T19:30:00.000Z,18.16
2023-05-20T19:45:00.000Z,20.33
2023-05-20T20:00:00.000Z,20.56
2023-05-20T20:15:00.000Z,18.26
2023-05-20T20:30:00.000Z,17.52
2023-05-20T20:45:00.000Z,17.76
2023-05-20T21:00:00.000Z,16.95
2023-05-20T21:15:00.000Z,15.75
2023-05-20T21:30:00.000Z,15.82
2023-05-20T21:45:00.000Z,16.07
2023-05-20T22:00:00.000Z,17.06
2023-05-20T22:15:00.000Z,16.58
2023-05-20T22:30:00.000Z,17.2
2023-05-20T22:45:00.000Z,18.09
2023-05-20T23:00:00.000Z,17.93
2023-05-20T23:15:00.000Z,18.09
2023-05-20T23:30:00.000Z,17.93
2023-05-20T23:45:00.000Z,17.44
